sensor_id;sensor_type;location;lat;lon;timestamp;P1;durP1;ratioP1;P2;durP2;ratioP2
4047;SDS011;2038;51.728;6.674;2023-09-12T00:00:39;26.03;;;18.53;;
4047;SDS011;2038;51.728;6.674;2023-09-12T00:03:06;22.90;;;19.07;;
4047;SDS011;2038;51.728;6.674;2023-09-12T00:05:32;30.83;;;22.00;;
4047;SDS011;2038;51.728;6.674;2023-09-12T00:07:58;25.77;;;21.00;;
4047;SDS011;2038;51.728;6.674;2023-09-12T00:10:25;32.53;;;24.23;;
4047;SDS011;2038;51.728;6.674;2023-09-12T00:12:51;29.80;;;21.47;;
4047;SDS011;2038;51.728;6.674;2023-09-12T00:15:18;37.40;;;23.20;;
4047;SDS011;2038;51.728;6.674;2023-09-12T00:17:45;27.43;;;21.47;;
4047;SDS011;2038;51.728;6.674;2023-09-12T00:20:13;26.47;;;16.67;;
4047;SDS011;2038;51.728;6.674;2023-09-12T00:22:40;19.73;;;16.23;;
4047;SDS011;2038;51.728;6.674;2023-09-12T00:25:06;28.60;;;19.47;;
4047;SDS011;2038;51.728;6.674;2023-09-12T00:27:33;24.30;;;16.70;;
4047;SDS011;2038;51.728;6.674;2023-09-12T00:30:00;29.00;;;16.93;;
4047;SDS011;2038;51.728;6.674;2023-09-12T00:32:30;23.33;;;16.27;;
4047;SDS011;2038;51.728;6.674;2023-09-12T00:34:57;24.53;;;17.43;;
4047;SDS011;2038;51.728;6.674;2023-09-12T00:37:24;25.07;;;16.97;;
4047;SDS011;2038;51.728;6.674;2023-09-12T00:39:50;26.97;;;18.40;;
4047;SDS011;2038;51.728;6.674;2023-09-12T00:42:17;26.00;;;17.67;;
4047;SDS011;2038;51.728;6.674;2023-09-12T00:44:44;23.90;;;16.27;;
4047;SDS011;2038;51.728;6.674;2023-09-12T00:47:11;20.67;;;15.43;;
4047;SDS011;2038;51.728;6.674;2023-09-12T00:49:39;20.60;;;13.43;;
4047;SDS011;2038;51.728;6.674;2023-09-12T00:52:06;19.00;;;13.40;;
4047;SDS011;2038;51.728;6.674;2023-09-12T00:54:33;24.70;;;14.93;;
4047;SDS011;2038;51.728;6.674;2023-09-12T01:00:50;22.03;;;14.80;;
4047;SDS011;2038;51.728;6.674;2023-09-12T01:03:19;20.37;;;15.87;;
4047;SDS011;2038;51.728;6.674;2023-09-12T01:05:46;25.73;;;18.10;;
4047;SDS011;2038;51.728;6.674;2023-09-12T01:08:26;28.30;;;19.57;;
4047;SDS011;2038;51.728;6.674;2023-09-12T01:11:02;25.87;;;18.73;;
4047;SDS011;2038;51.728;6.674;2023-09-12T01:13:29;30.43;;;18.93;;
4047;SDS011;2038;51.728;6.674;2023-09-12T01:15:59;28.83;;;18.60;;
4047;SDS011;2038;51.728;6.674;2023-09-12T01:18:25;33.50;;;20.03;;
4047;SDS011;2038;51.728;6.674;2023-09-12T01:28:20;29.77;;;18.60;;
4047;SDS011;2038;51.728;6.674;2023-09-12T01:30:52;23.03;;;16.53;;
4047;SDS011;2038;51.728;6.674;2023-09-12T01:33:20;24.67;;;17.77;;
4047;SDS011;2038;51.728;6.674;2023-09-12T01:35:47;32.57;;;19.27;;
4047;SDS011;2038;51.728;6.674;2023-09-12T01:38:13;25.37;;;17.27;;
4047;SDS011;2038;51.728;6.674;2023-09-12T01:40:44;25.03;;;18.13;;
4047;SDS011;2038;51.728;6.674;2023-09-12T01:43:19;23.77;;;17.10;;
4047;SDS011;2038;51.728;6.674;2023-09-12T01:45:55;34.13;;;20.53;;
4047;SDS011;2038;51.728;6.674;2023-09-12T01:48:26;30.70;;;20.60;;
4047;SDS011;2038;51.728;6.674;2023-09-12T01:51:00;27.37;;;18.80;;
4047;SDS011;2038;51.728;6.674;2023-09-12T01:53:29;35.43;;;22.40;;
4047;SDS011;2038;51.728;6.674;2023-09-12T01:55:58;34.03;;;22.50;;
4047;SDS011;2038;51.728;6.674;2023-09-12T01:58:25;25.20;;;19.10;;
4047;SDS011;2038;51.728;6.674;2023-09-12T02:00:55;22.53;;;16.47;;
4047;SDS011;2038;51.728;6.674;2023-09-12T02:03:22;28.97;;;17.73;;
4047;SDS011;2038;51.728;6.674;2023-09-12T02:05:58;26.40;;;19.40;;
4047;SDS011;2038;51.728;6.674;2023-09-12T02:08:26;33.70;;;22.20;;
4047;SDS011;2038;51.728;6.674;2023-09-12T02:10:54;40.77;;;24.83;;
4047;SDS011;2038;51.728;6.674;2023-09-12T02:13:21;30.70;;;22.90;;
4047;SDS011;2038;51.728;6.674;2023-09-12T02:19:05;36.73;;;20.70;;
4047;SDS011;2038;51.728;6.674;2023-09-12T02:21:38;31.63;;;20.50;;
4047;SDS011;2038;51.728;6.674;2023-09-12T02:24:08;31.20;;;21.37;;
4047;SDS011;2038;51.728;6.674;2023-09-12T02:26:43;32.17;;;24.50;;
4047;SDS011;2038;51.728;6.674;2023-09-12T02:29:13;29.00;;;21.90;;
4047;SDS011;2038;51.728;6.674;2023-09-12T02:31:40;27.50;;;19.80;;
4047;SDS011;2038;51.728;6.674;2023-09-12T02:34:09;27.67;;;20.03;;
4047;SDS011;2038;51.728;6.674;2023-09-12T02:36:48;30.37;;;21.60;;
4047;SDS011;2038;51.728;6.674;2023-09-12T02:39:15;27.33;;;19.13;;
4047;SDS011;2038;51.728;6.674;2023-09-12T02:41:42;23.87;;;18.23;;
4047;SDS011;2038;51.728;6.674;2023-09-12T02:44:09;23.97;;;19.23;;
4047;SDS011;2038;51.728;6.674;2023-09-12T02:46:39;24.20;;;18.73;;
4047;SDS011;2038;51.728;6.674;2023-09-12T02:49:05;24.47;;;18.80;;
4047;SDS011;2038;51.728;6.674;2023-09-12T02:51:32;29.30;;;18.70;;
4047;SDS011;2038;51.728;6.674;2023-09-12T02:53:58;30.10;;;18.03;;
4047;SDS011;2038;51.728;6.674;2023-09-12T02:56:25;27.97;;;20.00;;
4047;SDS011;2038;51.728;6.674;2023-09-12T02:58:51;37.87;;;25.37;;
4047;SDS011;2038;51.728;6.674;2023-09-12T03:01:20;33.27;;;21.93;;
4047;SDS011;2038;51.728;6.674;2023-09-12T03:03:47;39.17;;;25.43;;
4047;SDS011;2038;51.728;6.674;2023-09-12T03:06:16;37.57;;;25.30;;
4047;SDS011;2038;51.728;6.674;2023-09-12T03:08:43;33.40;;;22.87;;
4047;SDS011;2038;51.728;6.674;2023-09-12T03:11:10;27.87;;;21.87;;
4047;SDS011;2038;51.728;6.674;2023-09-12T03:13:37;32.40;;;25.33;;
4047;SDS011;2038;51.728;6.674;2023-09-12T03:16:05;30.77;;;22.07;;
4047;SDS011;2038;51.728;6.674;2023-09-12T03:18:38;30.50;;;22.23;;
4047;SDS011;2038;51.728;6.674;2023-09-12T03:21:05;38.10;;;24.40;;
4047;SDS011;2038;51.728;6.674;2023-09-12T03:23:32;34.97;;;24.27;;
4047;SDS011;2038;51.728;6.674;2023-09-12T03:26:04;30.50;;;22.07;;
4047;SDS011;2038;51.728;6.674;2023-09-12T03:28:32;34.50;;;23.20;;
4047;SDS011;2038;51.728;6.674;2023-09-12T03:31:09;24.57;;;19.73;;
4047;SDS011;2038;51.728;6.674;2023-09-12T03:33:38;31.23;;;22.93;;
4047;SDS011;2038;51.728;6.674;2023-09-12T03:36:08;34.53;;;22.83;;
4047;SDS011;2038;51.728;6.674;2023-09-12T03:38:35;36.30;;;21.57;;
4047;SDS011;2038;51.728;6.674;2023-09-12T03:41:01;35.30;;;22.43;;
4047;SDS011;2038;51.728;6.674;2023-09-12T03:43:28;26.90;;;21.17;;
4047;SDS011;2038;51.728;6.674;2023-09-12T03:45:55;27.97;;;20.77;;
4047;SDS011;2038;51.728;6.674;2023-09-12T03:48:21;33.80;;;23.43;;
4047;SDS011;2038;51.728;6.674;2023-09-12T03:50:48;32.50;;;24.30;;
4047;SDS011;2038;51.728;6.674;2023-09-12T03:53:15;41.80;;;24.70;;
4047;SDS011;2038;51.728;6.674;2023-09-12T03:55:42;31.37;;;21.90;;
4047;SDS011;2038;51.728;6.674;2023-09-12T03:58:09;27.20;;;21.13;;
4047;SDS011;2038;51.728;6.674;2023-09-12T04:00:35;29.20;;;20.77;;
4047;SDS011;2038;51.728;6.674;2023-09-12T04:03:01;34.87;;;24.20;;
4047;SDS011;2038;51.728;6.674;2023-09-12T04:05:28;38.13;;;25.73;;
4047;SDS011;2038;51.728;6.674;2023-09-12T04:07:55;33.00;;;23.17;;
4047;SDS011;2038;51.728;6.674;2023-09-12T04:10:21;33.60;;;25.50;;
4047;SDS011;2038;51.728;6.674;2023-09-12T04:12:48;34.50;;;25.80;;
4047;SDS011;2038;51.728;6.674;2023-09-12T04:15:14;30.73;;;22.57;;
4047;SDS011;2038;51.728;6.674;2023-09-12T04:17:41;30.70;;;21.50;;
4047;SDS011;2038;51.728;6.674;2023-09-12T04:20:07;25.60;;;19.30;;
4047;SDS011;2038;51.728;6.674;2023-09-12T04:22:37;24.27;;;18.97;;
4047;SDS011;2038;51.728;6.674;2023-09-12T04:25:03;31.37;;;20.50;;
4047;SDS011;2038;51.728;6.674;2023-09-12T04:27:30;30.83;;;18.80;;
4047;SDS011;2038;51.728;6.674;2023-09-12T04:29:57;28.07;;;20.43;;
4047;SDS011;2038;51.728;6.674;2023-09-12T04:32:23;31.70;;;21.57;;
4047;SDS011;2038;51.728;6.674;2023-09-12T04:34:50;32.03;;;20.47;;
4047;SDS011;2038;51.728;6.674;2023-09-12T04:37:16;26.53;;;20.10;;
4047;SDS011;2038;51.728;6.674;2023-09-12T04:39:44;28.87;;;19.50;;
4047;SDS011;2038;51.728;6.674;2023-09-12T04:42:10;27.60;;;19.70;;
4047;SDS011;2038;51.728;6.674;2023-09-12T04:44:38;31.67;;;22.37;;
4047;SDS011;2038;51.728;6.674;2023-09-12T04:47:06;31.47;;;22.57;;
4047;SDS011;2038;51.728;6.674;2023-09-12T04:49:34;40.73;;;24.80;;
4047;SDS011;2038;51.728;6.674;2023-09-12T04:52:00;37.10;;;25.67;;
4047;SDS011;2038;51.728;6.674;2023-09-12T04:54:28;33.67;;;23.60;;
4047;SDS011;2038;51.728;6.674;2023-09-12T04:56:54;26.50;;;22.20;;
4047;SDS011;2038;51.728;6.674;2023-09-12T04:59:21;20.53;;;18.17;;
4047;SDS011;2038;51.728;6.674;2023-09-12T05:01:47;21.97;;;19.63;;
4047;SDS011;2038;51.728;6.674;2023-09-12T05:04:15;24.07;;;20.30;;
4047;SDS011;2038;51.728;6.674;2023-09-12T05:06:42;28.47;;;22.90;;
4047;SDS011;2038;51.728;6.674;2023-09-12T05:09:09;31.30;;;23.80;;
4047;SDS011;2038;51.728;6.674;2023-09-12T05:11:36;36.40;;;25.33;;
4047;SDS011;2038;51.728;6.674;2023-09-12T05:14:05;45.80;;;30.80;;
4047;SDS011;2038;51.728;6.674;2023-09-12T05:16:39;62.23;;;29.70;;
4047;SDS011;2038;51.728;6.674;2023-09-12T05:19:05;44.37;;;30.50;;
4047;SDS011;2038;51.728;6.674;2023-09-12T05:21:37;41.73;;;26.53;;
4047;SDS011;2038;51.728;6.674;2023-09-12T05:24:53;36.77;;;25.97;;
4047;SDS011;2038;51.728;6.674;2023-09-12T05:27:29;35.73;;;24.67;;
4047;SDS011;2038;51.728;6.674;2023-09-12T05:29:55;37.33;;;24.93;;
4047;SDS011;2038;51.728;6.674;2023-09-12T05:32:22;29.93;;;23.80;;
4047;SDS011;2038;51.728;6.674;2023-09-12T05:34:48;32.57;;;23.07;;
4047;SDS011;2038;51.728;6.674;2023-09-12T05:37:15;36.30;;;25.40;;
4047;SDS011;2038;51.728;6.674;2023-09-12T05:39:41;36.73;;;26.30;;
4047;SDS011;2038;51.728;6.674;2023-09-12T05:42:08;31.90;;;24.70;;
4047;SDS011;2038;51.728;6.674;2023-09-12T05:44:34;28.20;;;20.77;;
4047;SDS011;2038;51.728;6.674;2023-09-12T05:47:01;30.33;;;22.50;;
4047;SDS011;2038;51.728;6.674;2023-09-12T05:49:27;29.77;;;21.17;;
4047;SDS011;2038;51.728;6.674;2023-09-12T05:51:54;26.37;;;19.77;;
4047;SDS011;2038;51.728;6.674;2023-09-12T05:54:20;24.73;;;19.30;;
4047;SDS011;2038;51.728;6.674;2023-09-12T05:56:46;26.27;;;19.80;;
4047;SDS011;2038;51.728;6.674;2023-09-12T05:59:16;28.43;;;22.00;;
4047;SDS011;2038;51.728;6.674;2023-09-12T06:01:42;27.40;;;21.83;;
4047;SDS011;2038;51.728;6.674;2023-09-12T06:04:09;32.20;;;22.63;;
4047;SDS011;2038;51.728;6.674;2023-09-12T06:06:35;27.47;;;20.80;;
4047;SDS011;2038;51.728;6.674;2023-09-12T06:09:02;25.00;;;20.90;;
4047;SDS011;2038;51.728;6.674;2023-09-12T06:11:28;26.07;;;20.13;;
4047;SDS011;2038;51.728;6.674;2023-09-12T06:13:56;32.63;;;24.70;;
4047;SDS011;2038;51.728;6.674;2023-09-12T06:16:22;29.30;;;22.63;;
4047;SDS011;2038;51.728;6.674;2023-09-12T06:18:49;28.93;;;21.80;;
4047;SDS011;2038;51.728;6.674;2023-09-12T06:21:18;33.07;;;24.47;;
4047;SDS011;2038;51.728;6.674;2023-09-12T06:24:07;30.37;;;21.77;;
4047;SDS011;2038;51.728;6.674;2023-09-12T06:26:37;33.90;;;25.07;;
4047;SDS011;2038;51.728;6.674;2023-09-12T06:29:07;32.63;;;24.40;;
4047;SDS011;2038;51.728;6.674;2023-09-12T06:31:34;40.57;;;28.33;;
4047;SDS011;2038;51.728;6.674;2023-09-12T06:34:01;36.40;;;27.30;;
4047;SDS011;2038;51.728;6.674;2023-09-12T06:36:28;45.33;;;31.10;;
4047;SDS011;2038;51.728;6.674;2023-09-12T06:38:55;44.00;;;28.80;;
4047;SDS011;2038;51.728;6.674;2023-09-12T06:41:22;38.90;;;28.83;;
4047;SDS011;2038;51.728;6.674;2023-09-12T06:43:49;38.20;;;27.53;;
4047;SDS011;2038;51.728;6.674;2023-09-12T06:46:16;41.50;;;28.73;;
4047;SDS011;2038;51.728;6.674;2023-09-12T06:48:43;41.70;;;28.97;;
4047;SDS011;2038;51.728;6.674;2023-09-12T06:51:11;42.67;;;26.70;;
4047;SDS011;2038;51.728;6.674;2023-09-12T06:53:38;40.20;;;27.17;;
4047;SDS011;2038;51.728;6.674;2023-09-12T06:56:05;32.87;;;23.63;;
4047;SDS011;2038;51.728;6.674;2023-09-12T06:58:31;29.93;;;21.30;;
4047;SDS011;2038;51.728;6.674;2023-09-12T07:01:02;43.50;;;28.50;;
4047;SDS011;2038;51.728;6.674;2023-09-12T07:03:32;39.53;;;28.40;;
4047;SDS011;2038;51.728;6.674;2023-09-12T07:06:00;37.57;;;26.70;;
4047;SDS011;2038;51.728;6.674;2023-09-12T07:08:31;35.03;;;24.20;;
4047;SDS011;2038;51.728;6.674;2023-09-12T07:10:58;30.33;;;21.60;;
4047;SDS011;2038;51.728;6.674;2023-09-12T07:13:30;32.37;;;23.33;;
4047;SDS011;2038;51.728;6.674;2023-09-12T07:15:58;30.53;;;22.33;;
4047;SDS011;2038;51.728;6.674;2023-09-12T07:18:29;31.83;;;23.27;;
4047;SDS011;2038;51.728;6.674;2023-09-12T07:20:59;29.63;;;21.83;;
4047;SDS011;2038;51.728;6.674;2023-09-12T07:23:37;31.47;;;21.70;;
4047;SDS011;2038;51.728;6.674;2023-09-12T07:26:04;35.93;;;26.47;;
4047;SDS011;2038;51.728;6.674;2023-09-12T07:28:31;41.27;;;27.50;;
4047;SDS011;2038;51.728;6.674;2023-09-12T07:30:57;39.40;;;27.17;;
4047;SDS011;2038;51.728;6.674;2023-09-12T07:33:24;41.13;;;27.87;;
4047;SDS011;2038;51.728;6.674;2023-09-12T07:35:59;43.17;;;28.30;;
4047;SDS011;2038;51.728;6.674;2023-09-12T07:38:32;41.50;;;27.30;;
4047;SDS011;2038;51.728;6.674;2023-09-12T07:41:00;51.20;;;31.23;;
4047;SDS011;2038;51.728;6.674;2023-09-12T07:43:30;40.07;;;28.37;;
4047;SDS011;2038;51.728;6.674;2023-09-12T07:46:07;41.33;;;28.30;;
4047;SDS011;2038;51.728;6.674;2023-09-12T07:48:54;41.63;;;28.23;;
4047;SDS011;2038;51.728;6.674;2023-09-12T07:51:23;35.27;;;25.30;;
4047;SDS011;2038;51.728;6.674;2023-09-12T07:53:50;32.33;;;22.90;;
4047;SDS011;2038;51.728;6.674;2023-09-12T07:56:16;27.47;;;19.53;;
4047;SDS011;2038;51.728;6.674;2023-09-12T07:58:43;33.90;;;24.47;;
4047;SDS011;2038;51.728;6.674;2023-09-12T08:01:09;31.47;;;21.70;;
4047;SDS011;2038;51.728;6.674;2023-09-12T08:03:36;26.03;;;20.73;;
4047;SDS011;2038;51.728;6.674;2023-09-12T08:06:04;44.10;;;28.50;;
4047;SDS011;2038;51.728;6.674;2023-09-12T08:08:32;33.27;;;21.90;;
4047;SDS011;2038;51.728;6.674;2023-09-12T08:10:58;33.03;;;23.80;;
4047;SDS011;2038;51.728;6.674;2023-09-12T08:13:26;33.07;;;24.37;;
4047;SDS011;2038;51.728;6.674;2023-09-12T08:15:54;35.10;;;23.00;;
4047;SDS011;2038;51.728;6.674;2023-09-12T08:18:25;32.63;;;21.60;;
4047;SDS011;2038;51.728;6.674;2023-09-12T08:20:56;33.13;;;23.17;;
4047;SDS011;2038;51.728;6.674;2023-09-12T08:23:23;24.70;;;18.47;;
4047;SDS011;2038;51.728;6.674;2023-09-12T08:25:49;31.77;;;19.57;;
4047;SDS011;2038;51.728;6.674;2023-09-12T08:28:16;23.87;;;18.60;;
4047;SDS011;2038;51.728;6.674;2023-09-12T08:30:44;35.30;;;23.17;;
4047;SDS011;2038;51.728;6.674;2023-09-12T08:33:13;34.17;;;23.80;;
4047;SDS011;2038;51.728;6.674;2023-09-12T08:35:40;41.70;;;27.73;;
4047;SDS011;2038;51.728;6.674;2023-09-12T08:38:06;37.80;;;27.20;;
4047;SDS011;2038;51.728;6.674;2023-09-12T08:40:33;38.33;;;23.50;;
4047;SDS011;2038;51.728;6.674;2023-09-12T08:43:06;32.27;;;22.20;;
4047;SDS011;2038;51.728;6.674;2023-09-12T08:45:39;48.40;;;34.17;;
4047;SDS011;2038;51.728;6.674;2023-09-12T08:48:08;48.57;;;31.23;;
4047;SDS011;2038;51.728;6.674;2023-09-12T08:50:37;63.57;;;36.97;;
4047;SDS011;2038;51.728;6.674;2023-09-12T08:53:04;39.07;;;28.00;;
4047;SDS011;2038;51.728;6.674;2023-09-12T08:55:30;36.77;;;26.80;;
4047;SDS011;2038;51.728;6.674;2023-09-12T08:58:00;40.37;;;27.17;;
4047;SDS011;2038;51.728;6.674;2023-09-12T09:00:29;25.33;;;21.87;;
4047;SDS011;2038;51.728;6.674;2023-09-12T09:02:58;28.90;;;21.83;;
4047;SDS011;2038;51.728;6.674;2023-09-12T09:05:25;25.70;;;20.60;;
4047;SDS011;2038;51.728;6.674;2023-09-12T09:07:54;29.60;;;24.03;;
4047;SDS011;2038;51.728;6.674;2023-09-12T09:10:22;33.70;;;26.40;;
4047;SDS011;2038;51.728;6.674;2023-09-12T09:12:49;28.97;;;21.00;;
4047;SDS011;2038;51.728;6.674;2023-09-12T09:17:54;35.80;;;25.90;;
4047;SDS011;2038;51.728;6.674;2023-09-12T09:20:33;37.87;;;26.27;;
4047;SDS011;2038;51.728;6.674;2023-09-12T09:23:10;30.57;;;24.17;;
4047;SDS011;2038;51.728;6.674;2023-09-12T09:25:42;32.00;;;24.47;;
4047;SDS011;2038;51.728;6.674;2023-09-12T09:28:21;30.70;;;25.33;;
4047;SDS011;2038;51.728;6.674;2023-09-12T09:30:56;24.73;;;21.80;;
4047;SDS011;2038;51.728;6.674;2023-09-12T09:33:33;33.90;;;26.43;;
4047;SDS011;2038;51.728;6.674;2023-09-12T09:36:04;27.30;;;24.07;;
4047;SDS011;2038;51.728;6.674;2023-09-12T09:38:36;25.90;;;22.00;;
4047;SDS011;2038;51.728;6.674;2023-09-12T09:41:05;27.60;;;22.43;;
4047;SDS011;2038;51.728;6.674;2023-09-12T09:43:35;32.50;;;23.37;;
4047;SDS011;2038;51.728;6.674;2023-09-12T09:46:02;23.50;;;19.27;;
4047;SDS011;2038;51.728;6.674;2023-09-12T09:48:29;27.60;;;20.93;;
4047;SDS011;2038;51.728;6.674;2023-09-12T09:54:12;25.63;;;20.90;;
4047;SDS011;2038;51.728;6.674;2023-09-12T09:59:36;22.83;;;19.23;;
4047;SDS011;2038;51.728;6.674;2023-09-12T10:02:02;27.70;;;22.60;;
4047;SDS011;2038;51.728;6.674;2023-09-12T10:04:41;29.33;;;23.07;;
4047;SDS011;2038;51.728;6.674;2023-09-12T10:07:11;27.10;;;22.73;;
4047;SDS011;2038;51.728;6.674;2023-09-12T10:09:40;25.77;;;21.40;;
4047;SDS011;2038;51.728;6.674;2023-09-12T10:12:08;28.37;;;21.80;;
4047;SDS011;2038;51.728;6.674;2023-09-12T10:14:37;21.17;;;18.40;;
4047;SDS011;2038;51.728;6.674;2023-09-12T10:17:07;25.00;;;21.23;;
4047;SDS011;2038;51.728;6.674;2023-09-12T10:19:39;23.77;;;20.77;;
4047;SDS011;2038;51.728;6.674;2023-09-12T10:25:17;23.77;;;20.70;;
4047;SDS011;2038;51.728;6.674;2023-09-12T10:27:44;32.60;;;24.63;;
4047;SDS011;2038;51.728;6.674;2023-09-12T10:30:12;24.73;;;20.00;;
4047;SDS011;2038;51.728;6.674;2023-09-12T10:32:39;31.77;;;24.43;;
4047;SDS011;2038;51.728;6.674;2023-09-12T10:35:11;29.70;;;22.50;;
4047;SDS011;2038;51.728;6.674;2023-09-12T10:37:37;25.60;;;22.03;;
4047;SDS011;2038;51.728;6.674;2023-09-12T10:40:11;33.70;;;25.63;;
4047;SDS011;2038;51.728;6.674;2023-09-12T10:42:41;26.60;;;22.27;;
4047;SDS011;2038;51.728;6.674;2023-09-12T10:45:10;27.20;;;20.27;;
4047;SDS011;2038;51.728;6.674;2023-09-12T10:47:36;27.67;;;22.33;;
4047;SDS011;2038;51.728;6.674;2023-09-12T10:50:04;26.77;;;20.27;;
4047;SDS011;2038;51.728;6.674;2023-09-12T10:52:32;27.23;;;21.83;;
4047;SDS011;2038;51.728;6.674;2023-09-12T10:55:04;24.67;;;19.77;;
4047;SDS011;2038;51.728;6.674;2023-09-12T10:57:31;27.23;;;18.63;;
4047;SDS011;2038;51.728;6.674;2023-09-12T11:05:58;20.53;;;16.53;;
4047;SDS011;2038;51.728;6.674;2023-09-12T11:12:02;14.43;;;12.50;;
4047;SDS011;2038;51.728;6.674;2023-09-12T11:15:05;17.00;;;12.57;;
4047;SDS011;2038;51.728;6.674;2023-09-12T11:17:43;15.20;;;13.10;;
4047;SDS011;2038;51.728;6.674;2023-09-12T11:20:17;16.20;;;12.93;;
4047;SDS011;2038;51.728;6.674;2023-09-12T11:22:44;17.73;;;14.10;;
4047;SDS011;2038;51.728;6.674;2023-09-12T11:25:16;20.00;;;17.87;;
4047;SDS011;2038;51.728;6.674;2023-09-12T11:33:24;16.43;;;12.73;;
4047;SDS011;2038;51.728;6.674;2023-09-12T23:15:14;28.00;;;22.47;;
4047;SDS011;2038;51.728;6.674;2023-09-12T23:17:41;24.47;;;18.27;;
4047;SDS011;2038;51.728;6.674;2023-09-12T23:20:07;28.90;;;21.90;;
4047;SDS011;2038;51.728;6.674;2023-09-12T23:22:40;29.70;;;21.63;;
4047;SDS011;2038;51.728;6.674;2023-09-12T23:25:07;36.57;;;22.07;;
4047;SDS011;2038;51.728;6.674;2023-09-12T23:27:35;32.03;;;22.30;;
4047;SDS011;2038;51.728;6.674;2023-09-12T23:30:02;32.33;;;22.70;;
4047;SDS011;2038;51.728;6.674;2023-09-12T23:32:29;34.50;;;25.00;;
4047;SDS011;2038;51.728;6.674;2023-09-12T23:34:55;33.40;;;23.10;;
4047;SDS011;2038;51.728;6.674;2023-09-12T23:37:22;32.93;;;23.20;;
4047;SDS011;2038;51.728;6.674;2023-09-12T23:39:49;33.63;;;24.37;;
4047;SDS011;2038;51.728;6.674;2023-09-12T23:42:17;32.77;;;21.63;;
4047;SDS011;2038;51.728;6.674;2023-09-12T23:44:47;35.47;;;24.93;;
4047;SDS011;2038;51.728;6.674;2023-09-12T23:47:13;34.10;;;24.80;;
4047;SDS011;2038;51.728;6.674;2023-09-12T23:49:41;36.20;;;25.10;;
4047;SDS011;2038;51.728;6.674;2023-09-12T23:52:08;33.87;;;25.60;;
4047;SDS011;2038;51.728;6.674;2023-09-12T23:54:34;32.30;;;24.63;;
4047;SDS011;2038;51.728;6.674;2023-09-12T23:57:01;34.63;;;26.30;;
4047;SDS011;2038;51.728;6.674;2023-09-12T23:59:28;35.47;;;25.30;;
